Terminal Aerodrome Forecast
Issued by NWS Milwaukee/Sullivan, WI

Home | Current Version | Previous Version | Text Only | Print | Product List | Glossary On
Versions: 1 2 3 4 5 6 7 8 9 10 11 12 13 14 15 16 17 18 19 20 21 22 23 24 25 26 27 28
000
FTUS43 KMKX 281741
TAFMSN
TAF
KMSN 281741Z 2818/2918 26005KT P6SM SCT030
     FM282000 27008KT P6SM VCSH SCT045
     FM282200 28009KT P6SM FEW050
     FM290100 25005KT P6SM FEW200
     FM291500 27011G20KT P6SM SCT130=

USA.gov is the U.S. government's official web portal to all federal, state and local government web resources and services.